createdAt,value
2019-05-11T00:02:40.993Z,6.23
2019-05-11T00:07:25.671Z,5.70
2019-05-11T00:12:10.742Z,5.60
2019-05-11T00:16:55.682Z,5.83
2019-05-11T00:21:40.735Z,5.40
2019-05-11T00:26:25.581Z,5.03
2019-05-11T00:31:10.355Z,5.30
2019-05-11T00:35:55.277Z,5.60
2019-05-11T00:40:39.878Z,4.93
2019-05-11T00:45:24.777Z,5.30
2019-05-11T00:50:10.100Z,5.53
2019-05-11T00:54:55.079Z,5.37
2019-05-11T00:59:39.939Z,5.17
2019-05-11T01:04:24.914Z,4.77
2019-05-11T01:09:10.302Z,4.93
2019-05-11T01:13:55.370Z,4.57
2019-05-11T01:18:40.439Z,5.87
2019-05-11T01:23:25.335Z,5.83
2019-05-11T01:28:10.531Z,5.23
2019-05-11T01:32:55.471Z,5.30
2019-05-11T01:37:40.282Z,7.30
2019-05-11T01:42:25.358Z,6.40
2019-05-11T01:47:10.038Z,6.97
2019-05-11T01:51:54.936Z,6.00
2019-05-11T01:56:40.047Z,6.03
2019-05-11T02:01:24.738Z,5.87
2019-05-11T02:06:09.409Z,5.80
2019-05-11T02:10:54.669Z,6.93
2019-05-11T02:15:39.791Z,6.20
2019-05-11T02:20:24.489Z,7.33
2019-05-11T02:25:09.169Z,6.07
2019-05-11T02:29:53.991Z,6.83
2019-05-11T02:34:38.970Z,7.10
2019-05-11T02:39:23.722Z,6.27
2019-05-11T02:44:08.622Z,7.00
2019-05-11T02:48:53.627Z,7.00
2019-05-11T02:53:41.267Z,6.43
2019-05-11T02:58:26.087Z,7.03
2019-05-11T03:03:11.348Z,6.17
2019-05-11T03:07:56.113Z,6.63
2019-05-11T03:12:41.004Z,6.80
2019-05-11T03:17:30.392Z,6.87
2019-05-11T03:22:15.247Z,7.70
2019-05-11T03:27:00.437Z,7.37
2019-05-11T03:31:45.355Z,7.07
2019-05-11T03:36:30.249Z,6.30
2019-05-11T03:41:15.050Z,7.27
2019-05-11T03:45:59.920Z,7.67
2019-05-11T03:50:44.854Z,7.90
2019-05-11T03:55:29.440Z,8.03
2019-05-11T04:00:14.481Z,8.17
2019-05-11T04:04:59.249Z,8.80
2019-05-11T04:09:44.094Z,10.40
2019-05-11T04:14:29.108Z,12.10
2019-05-11T04:19:14.012Z,11.93
2019-05-11T04:23:58.970Z,13.00
2019-05-11T04:28:43.746Z,10.63
2019-05-11T04:33:32.823Z,9.63
2019-05-11T04:38:14.981Z,9.37
2019-05-11T04:43:00.215Z,8.43
2019-05-11T04:47:45.505Z,8.93
2019-05-11T04:52:30.606Z,6.70
2019-05-11T04:57:15.506Z,4.37
2019-05-11T05:02:00.320Z,4.67
2019-05-11T05:06:58.883Z,5.20
2019-05-11T05:11:36.825Z,5.00
2019-05-11T05:16:21.075Z,5.03
2019-05-11T05:21:05.730Z,4.63
2019-05-11T05:25:50.990Z,3.57
2019-05-11T05:30:35.865Z,3.43
2019-05-11T05:35:22.006Z,3.50
2019-05-11T05:40:07.211Z,3.47
2019-05-11T05:44:52.199Z,3.90
2019-05-11T05:49:37.545Z,3.80
2019-05-11T05:54:23.131Z,3.00
2019-05-11T05:59:08.082Z,3.70
2019-05-11T06:03:53.473Z,4.07
2019-05-11T06:08:43.020Z,4.20
2019-05-11T06:13:42.777Z,3.90
2019-05-11T06:18:12.923Z,3.50
2019-05-11T06:22:58.178Z,3.53
2019-05-11T06:27:43.165Z,3.70
2019-05-11T06:32:28.068Z,3.97
2019-05-11T06:37:12.831Z,4.07
2019-05-11T06:41:57.789Z,3.73
2019-05-11T06:46:42.694Z,4.57
2019-05-11T06:51:27.979Z,4.17
2019-05-11T06:56:12.914Z,4.37
2019-05-11T07:00:58.103Z,3.93
2019-05-11T07:05:44.405Z,4.73
2019-05-11T07:10:29.349Z,4.17
2019-05-11T07:15:14.822Z,4.63
2019-05-11T07:20:00.109Z,5.17
2019-05-11T07:24:45.327Z,5.03
2019-05-11T07:29:30.672Z,5.57
2019-05-11T07:34:15.688Z,4.63
2019-05-11T07:39:00.721Z,4.83
2019-05-11T07:43:48.312Z,5.23
2019-05-11T07:48:32.856Z,4.93
2019-05-11T07:53:18.664Z,5.33
2019-05-11T07:58:03.508Z,5.20
2019-05-11T08:02:48.701Z,4.83
2019-05-11T08:07:33.496Z,4.60
2019-05-11T08:12:19.166Z,5.67
2019-05-11T08:17:04.014Z,6.07
2019-05-11T08:21:49.004Z,5.87
2019-05-11T08:26:33.879Z,6.00
2019-05-11T08:31:21.133Z,6.07
2019-05-11T08:36:08.237Z,6.23
2019-05-11T08:40:54.463Z,5.40
2019-05-11T08:45:41.185Z,6.93
2019-05-11T08:50:28.150Z,6.93
2019-05-11T08:55:13.422Z,6.57
2019-05-11T08:59:58.215Z,5.70
2019-05-11T09:04:42.939Z,6.13
2019-05-11T09:09:28.835Z,6.47
2019-05-11T09:14:13.706Z,7.03
2019-05-11T09:18:58.776Z,7.63
2019-05-11T09:23:43.877Z,6.63
2019-05-11T09:28:29.590Z,7.33
2019-05-11T09:33:17.722Z,7.87
2019-05-11T09:38:01.336Z,7.23
2019-05-11T09:42:47.915Z,7.33
2019-05-11T09:47:33.078Z,7.67
2019-05-11T09:52:18.453Z,7.43
2019-05-11T09:57:03.512Z,8.33
2019-05-11T10:01:50.438Z,8.13
2019-05-11T10:06:35.845Z,8.07
2019-05-11T10:11:20.848Z,7.40
2019-05-11T10:16:08.104Z,7.97
2019-05-11T10:20:54.469Z,7.33
2019-05-11T10:25:39.570Z,8.10
2019-05-11T10:30:27.809Z,7.77
2019-05-11T10:35:12.444Z,6.10
2019-05-11T10:39:57.854Z,6.90
2019-05-11T10:44:43.062Z,5.77
2019-05-11T10:49:30.450Z,5.30
2019-05-11T10:54:15.299Z,5.00
2019-05-11T10:59:00.402Z,4.20
2019-05-11T11:03:48.122Z,3.93
2019-05-11T11:08:32.218Z,4.70
2019-05-11T11:13:18.780Z,4.70
2019-05-11T11:18:03.604Z,4.93
2019-05-11T11:22:51.262Z,4.33
2019-05-11T11:27:38.084Z,4.83
2019-05-11T11:32:23.385Z,4.57
2019-05-11T11:37:08.433Z,4.50
2019-05-11T11:41:53.464Z,6.43
2019-05-11T11:46:51.402Z,4.70
2019-05-11T11:51:25.636Z,4.80
2019-05-11T11:56:10.720Z,5.53
2019-05-11T12:00:55.271Z,5.17
2019-05-11T12:05:40.004Z,5.20
2019-05-11T12:10:24.991Z,7.00
2019-05-11T12:15:09.893Z,7.57
2019-05-11T12:19:58.561Z,6.63
2019-05-11T12:24:43.400Z,4.70
2019-05-11T12:29:28.345Z,4.50
2019-05-11T12:34:13.489Z,4.30
2019-05-11T12:38:58.551Z,4.83
2019-05-11T12:43:43.355Z,5.50
2019-05-11T12:48:28.556Z,5.33
2019-05-11T12:53:13.505Z,5.40
2019-05-11T12:57:58.441Z,7.33
2019-05-11T13:02:43.135Z,7.50
2019-05-11T13:07:28.481Z,6.43
2019-05-11T13:12:14.872Z,6.17
2019-05-11T13:17:00.080Z,6.63
2019-05-11T13:21:44.929Z,6.33
2019-05-11T13:26:37.480Z,6.60
2019-05-11T13:31:22.658Z,6.50
2019-05-11T13:36:09.109Z,7.07
2019-05-11T13:40:54.153Z,6.87
